Terminal Aerodrome Forecast
Issued by NWS San Angelo, TX

Home | Current Version | Previous Version | Text Only | Print | Product List | Glossary On
Versions: 1 2 3 4 5 6 7 8 9 10 11 12 13 14 15 16 17 18
339
FTUS44 KSJT 260531 CCB
TAFSJT
TAF COR
KSJT 260531Z 2606/2706 02011KT 2SM SHRA BR OVC008
     FM260800 02014KT 5SM -SHRA BR OVC008
     FM261500 03011G20KT P6SM VCSH BKN020
     FM262100 04011KT P6SM BKN035=

USA.gov is the U.S. government's official web portal to all federal, state and local government web resources and services.